Time;durP1;ratioP1;P1;durP2;ratioP2;P2;SDS_P1;SDS_P2;PMS_P1;PMS_P2;Temp;Humidity;BMP_temperature;BMP_pressure;BME280_temperature;BME280_humidity;BME280_pressure;Samples;Min_cycle;Max_cycle;Signal;HPM_P1;HPM_P2
2023/06/10 00:02:27;;;;;;;7.53;5.90;;;17.30;57.60;;;;;;5072353;28;20071;-71
2023/06/10 00:04:52;;;;;;;7.47;5.65;;;17.30;57.50;;;;;;5073252;28;20167;-71
2023/06/10 00:07:18;;;;;;;6.22;5.22;;;17.30;57.60;;;;;;5073212;28;20060;-71
2023/06/10 00:09:44;;;;;;;6.50;5.82;;;17.40;57.60;;;;;;5073240;28;20481;-71
2023/06/10 00:12:09;;;;;;;6.03;5.43;;;17.40;57.50;;;;;;5073301;28;20032;-72
2023/06/10 00:14:38;;;;;;;5.28;4.78;;;17.40;57.40;;;;;;5073236;28;20028;-71
2023/06/10 00:17:04;;;;;;;6.18;5.13;;;17.50;57.40;;;;;;5073428;28;20024;-71
2023/06/10 00:19:33;;;;;;;5.60;5.10;;;17.50;57.40;;;;;;5073109;28;20021;-71
2023/06/10 00:21:59;;;;;;;6.00;5.28;;;17.50;57.30;;;;;;5071789;28;20534;-71
2023/06/10 00:24:24;;;;;;;6.47;5.47;;;17.60;57.10;;;;;;5073017;28;20123;-71
2023/06/10 00:26:50;;;;;;;8.23;5.30;;;17.60;57.20;;;;;;5073054;28;20016;-71
2023/06/10 00:29:16;;;;;;;5.93;5.32;;;17.50;57.20;;;;;;5073015;28;20468;-71
2023/06/10 00:31:41;;;;;;;5.82;4.90;;;17.60;57.30;;;;;;5072986;28;20016;-71
2023/06/10 00:34:08;;;;;;;6.32;5.32;;;17.60;57.20;;;;;;5073070;28;20426;-71
2023/06/10 00:36:33;;;;;;;5.50;5.00;;;17.60;57.30;;;;;;5072951;28;20036;-71
2023/06/10 00:38:59;;;;;;;6.05;4.97;;;17.60;57.30;;;;;;5072671;28;20048;-71
2023/06/10 00:41:26;;;;;;;5.90;4.95;;;17.60;57.10;;;;;;5072858;28;20013;-71
2023/06/10 00:43:52;;;;;;;6.32;5.72;;;17.50;57.20;;;;;;5072852;28;20477;-71
2023/06/10 00:46:18;;;;;;;6.72;5.50;;;17.50;57.50;;;;;;5072788;28;20024;-73
2023/06/10 00:48:44;;;;;;;5.90;5.28;;;17.40;57.60;;;;;;5072798;28;20465;-70
2023/06/10 00:51:10;;;;;;;7.25;5.53;;;17.40;57.60;;;;;;5072805;28;20118;-71
2023/06/10 00:53:41;;;;;;;6.57;5.35;;;17.30;57.60;;;;;;5072761;28;20420;-71
2023/06/10 00:56:07;;;;;;;6.88;5.70;;;17.40;57.70;;;;;;5072954;28;20096;-71
2023/06/10 00:58:32;;;;;;;7.63;5.82;;;17.30;57.80;;;;;;5072804;28;20025;-71
2023/06/10 01:00:58;;;;;;;7.75;6.50;;;17.30;57.70;;;;;;5072702;28;20115;-71
2023/06/10 01:03:24;;;;;;;7.50;6.80;;;17.30;57.60;;;;;;5072736;28;20028;-71
2023/06/10 01:05:59;;;;;;;7.65;6.68;;;17.30;57.80;;;;;;5072691;28;20477;-71
2023/06/10 01:08:38;;;;;;;7.00;6.13;;;17.20;57.80;;;;;;5072633;28;20035;-71
2023/06/10 01:11:07;;;;;;;7.13;5.68;;;17.20;58.10;;;;;;5072633;28;20021;-70
2023/06/10 01:13:35;;;;;;;6.35;5.70;;;17.20;58.00;;;;;;5072503;28;20171;-71
2023/06/10 01:16:01;;;;;;;6.40;5.80;;;17.20;58.10;;;;;;5071207;28;20384;-71
2023/06/10 01:18:31;;;;;;;7.85;6.55;;;17.20;58.30;;;;;;5072427;28;20020;-71
2023/06/10 01:20:57;;;;;;;7.78;6.97;;;17.20;58.50;;;;;;5072520;28;20408;-71
2023/06/10 01:23:23;;;;;;;7.32;6.28;;;17.20;58.80;;;;;;5072424;28;20056;-71
2023/06/10 01:26:03;;;;;;;7.68;6.75;;;17.10;59.10;;;;;;5072428;28;20060;-71
2023/06/10 01:28:41;;;;;;;9.15;6.68;;;17.10;59.60;;;;;;5072508;28;20096;-70
2023/06/10 01:31:45;;;;;;;9.90;7.13;;;17.10;59.80;;;;;;5072385;28;20048;-71
2023/06/10 01:34:14;;;;;;;9.80;6.68;;;17.10;59.80;;;;;;5051286;28;20037;-71
2023/06/10 01:36:44;;;;;;;7.97;7.00;;;17.20;59.70;;;;;;5072364;28;20020;-71
2023/06/10 01:39:11;;;;;;;8.75;7.05;;;17.20;59.60;;;;;;5072123;28;20048;-71
2023/06/10 01:41:37;;;;;;;8.25;6.97;;;17.20;59.70;;;;;;5073810;28;20016;-71
2023/06/10 01:44:04;;;;;;;13.65;7.28;;;17.30;59.80;;;;;;5075774;28;20029;-71
2023/06/10 01:46:29;;;;;;;8.57;7.38;;;17.30;59.80;;;;;;5075885;28;20059;-71
2023/06/10 01:48:55;;;;;;;9.10;7.15;;;17.40;59.90;;;;;;5075761;28;20028;-71
2023/06/10 01:51:21;;;;;;;7.68;6.90;;;17.40;59.80;;;;;;5075799;28;20047;-71
2023/06/10 01:53:46;;;;;;;8.65;7.07;;;17.40;59.70;;;;;;5075677;28;20474;-71
2023/06/10 01:56:16;;;;;;;9.07;6.82;;;17.50;59.70;;;;;;5075611;28;20017;-71
2023/06/10 01:58:42;;;;;;;7.50;6.70;;;17.50;59.70;;;;;;5075791;28;20044;-71
2023/06/10 02:01:09;;;;;;;7.40;6.68;;;17.50;59.60;;;;;;5075514;28;20021;-71
2023/06/10 02:03:34;;;;;;;10.65;7.13;;;17.50;59.70;;;;;;5075466;28;20036;-71
2023/06/10 02:06:00;;;;;;;7.68;6.57;;;17.50;59.70;;;;;;5075525;28;20362;-71
2023/06/10 02:08:27;;;;;;;8.88;6.43;;;17.50;59.90;;;;;;5075386;28;20125;-71
2023/06/10 02:10:53;;;;;;;9.00;7.18;;;17.40;60.70;;;;;;5075500;28;20016;-70
2023/06/10 02:13:18;;;;;;;7.68;6.65;;;17.40;60.00;;;;;;5075339;28;20389;-70
2023/06/10 02:15:44;;;;;;;9.55;7.65;;;17.40;60.10;;;;;;5075191;28;20033;-70
2023/06/10 02:18:11;;;;;;;10.27;7.32;;;17.40;60.20;;;;;;5075198;28;20024;-70
2023/06/10 02:20:40;;;;;;;7.95;7.15;;;17.40;60.20;;;;;;5075220;28;20024;-70
2023/06/10 02:23:05;;;;;;;8.73;7.38;;;17.40;60.10;;;;;;5075125;28;20032;-71
2023/06/10 02:25:31;;;;;;;7.85;7.05;;;17.50;61.00;;;;;;5075232;28;20029;-71
2023/06/10 02:27:56;;;;;;;9.50;7.25;;;17.50;60.20;;;;;;5075154;28;20441;-71
2023/06/10 02:30:22;;;;;;;7.90;7.10;;;17.40;60.10;;;;;;5075121;28;20029;-71
2023/06/10 02:32:48;;;;;;;7.63;6.85;;;17.40;60.20;;;;;;5075060;28;20477;-71
2023/06/10 02:35:17;;;;;;;7.47;6.72;;;17.40;60.30;;;;;;5075057;28;20050;-72
2023/06/10 02:37:43;;;;;;;6.82;6.13;;;17.30;60.50;;;;;;5074876;28;20469;-73
2023/06/10 02:40:10;;;;;;;6.60;5.93;;;17.30;60.70;;;;;;5074817;28;20129;-72
2023/06/10 02:42:35;;;;;;;7.78;6.90;;;17.20;60.90;;;;;;5075024;28;20044;-71
2023/06/10 02:45:01;;;;;;;9.20;7.00;;;17.20;61.50;;;;;;5073409;28;20036;-71
2023/06/10 02:47:27;;;;;;;8.05;6.88;;;16.90;61.50;;;;;;5074688;28;20107;-71
2023/06/10 02:49:52;;;;;;;9.15;8.25;;;16.80;61.60;;;;;;5074687;28;20028;-71
2023/06/10 02:52:18;;;;;;;9.10;8.00;;;16.70;62.40;;;;;;5073764;28;20025;-71
2023/06/10 02:54:44;;;;;;;7.40;6.70;;;16.50;63.60;;;;;;5074245;28;20469;-71
2023/06/10 02:57:10;;;;;;;8.05;7.25;;;16.50;63.50;;;;;;5074542;28;20112;-71
2023/06/10 02:59:36;;;;;;;7.45;6.75;;;16.50;63.50;;;;;;5074492;28;20056;-71
2023/06/10 03:02:01;;;;;;;7.25;6.30;;;16.60;63.30;;;;;;5074463;28;20074;-71
2023/06/10 03:04:28;;;;;;;8.52;6.68;;;16.60;63.20;;;;;;5074249;28;20033;-71
2023/06/10 03:06:54;;;;;;;8.13;7.35;;;16.70;63.10;;;;;;5073061;28;20412;-71
2023/06/10 03:09:20;;;;;;;7.68;6.90;;;16.70;63.00;;;;;;5074304;28;20025;-71
2023/06/10 03:11:46;;;;;;;7.88;7.18;;;16.70;62.90;;;;;;5074188;28;20481;-71
2023/06/10 03:14:11;;;;;;;7.40;6.53;;;16.70;62.90;;;;;;5072903;28;20120;-71
2023/06/10 03:16:40;;;;;;;7.18;6.47;;;16.70;62.90;;;;;;5073985;28;20025;-71
2023/06/10 03:19:07;;;;;;;8.55;7.05;;;16.60;63.00;;;;;;5074133;28;20539;-71
2023/06/10 03:21:33;;;;;;;7.22;6.63;;;16.60;63.10;;;;;;5074034;28;20020;-71
2023/06/10 03:23:59;;;;;;;7.55;6.68;;;16.50;63.30;;;;;;5073949;28;20036;-72
2023/06/10 03:26:27;;;;;;;8.05;7.25;;;16.50;63.60;;;;;;5074018;28;20161;-72
2023/06/10 03:28:52;;;;;;;8.85;7.95;;;16.40;63.80;;;;;;5073945;28;20020;-72
2023/06/10 03:31:18;;;;;;;7.75;7.05;;;16.30;64.00;;;;;;5073932;28;20028;-72
2023/06/10 03:33:44;;;;;;;8.70;7.90;;;16.30;64.20;;;;;;5073806;28;20025;-71
2023/06/10 03:36:09;;;;;;;8.52;7.63;;;16.20;64.40;;;;;;5073766;28;20078;-71
2023/06/10 03:38:35;;;;;;;11.02;8.10;;;16.20;64.90;;;;;;5073771;28;20044;-71
2023/06/10 03:41:01;;;;;;;8.45;6.95;;;16.10;65.50;;;;;;5073779;28;20056;-71
2023/06/10 03:43:27;;;;;;;8.60;7.80;;;16.10;65.50;;;;;;5073601;28;20040;-72
2023/06/10 03:45:53;;;;;;;9.18;7.80;;;16.20;65.30;;;;;;5073485;28;20075;-71
2023/06/10 03:48:18;;;;;;;9.18;8.13;;;16.10;65.30;;;;;;5073429;28;20060;-72
2023/06/10 03:50:44;;;;;;;8.68;7.43;;;16.10;65.30;;;;;;5073514;28;20024;-71
2023/06/10 03:53:10;;;;;;;8.13;7.32;;;16.10;65.20;;;;;;5072127;28;20071;-71
2023/06/10 03:55:36;;;;;;;9.38;7.45;;;16.20;65.20;;;;;;5072206;28;20051;-71
2023/06/10 03:58:01;;;;;;;8.40;7.65;;;16.20;65.10;;;;;;5073392;28;20024;-72
2023/06/10 04:00:28;;;;;;;9.82;7.45;;;16.20;65.10;;;;;;5073380;28;20021;-71
2023/06/10 04:02:57;;;;;;;12.13;9.10;;;16.20;65.20;;;;;;5073168;28;20024;-70
2023/06/10 04:05:23;;;;;;;9.57;8.07;;;16.20;65.20;;;;;;5073013;28;20445;-71
2023/06/10 04:07:49;;;;;;;9.88;8.43;;;16.10;65.60;;;;;;5073304;28;20053;-72
2023/06/10 04:10:15;;;;;;;9.30;8.30;;;16.10;65.80;;;;;;5073231;28;20025;-71
2023/06/10 04:12:41;;;;;;;10.75;8.63;;;16.20;65.60;;;;;;5073283;28;20035;-71
2023/06/10 04:15:07;;;;;;;9.18;7.82;;;16.10;65.60;;;;;;5073321;28;20052;-72
2023/06/10 04:17:33;;;;;;;8.48;7.68;;;16.20;65.60;;;;;;5073217;28;20473;-72
2023/06/10 04:19:59;;;;;;;9.75;8.25;;;16.20;65.50;;;;;;5073194;28;20078;-71
2023/06/10 04:22:25;;;;;;;10.60;8.75;;;16.20;65.50;;;;;;5073167;28;20024;-72
2023/06/10 04:24:51;;;;;;;8.65;7.85;;;16.30;65.50;;;;;;5073036;28;20032;-72
2023/06/10 04:27:16;;;;;;;8.77;7.93;;;16.30;65.50;;;;;;5073085;28;20465;-71
2023/06/10 04:29:42;;;;;;;9.93;8.10;;;16.40;65.10;;;;;;5073043;28;20024;-71
2023/06/10 04:32:07;;;;;;;10.82;8.90;;;16.50;64.90;;;;;;5073281;28;20021;-71
2023/06/10 04:34:33;;;;;;;10.85;9.07;;;16.50;64.60;;;;;;5071784;28;20059;-71
2023/06/10 04:36:59;;;;;;;11.00;8.23;;;16.60;64.70;;;;;;5072975;28;20373;-71
2023/06/10 04:39:25;;;;;;;8.70;7.35;;;16.60;64.40;;;;;;5072809;28;20052;-71
2023/06/10 04:41:50;;;;;;;9.40;8.50;;;16.80;64.10;;;;;;5072966;28;20444;-71
2023/06/10 04:44:16;;;;;;;9.60;8.70;;;16.90;63.80;;;;;;5072804;28;20488;-71
2023/06/10 04:46:42;;;;;;;9.38;8.02;;;16.90;63.10;;;;;;5072837;28;20024;-71
2023/06/10 04:49:07;;;;;;;8.45;7.53;;;16.80;63.40;;;;;;5072832;28;20024;-71
2023/06/10 04:51:33;;;;;;;8.15;7.32;;;16.80;63.40;;;;;;5072887;28;20103;-71
2023/06/10 04:54:03;;;;;;;9.80;8.38;;;16.80;63.50;;;;;;5072762;28;20024;-71
2023/06/10 04:56:29;;;;;;;8.60;7.72;;;16.90;63.60;;;;;;5072796;28;20378;-71
2023/06/10 04:58:56;;;;;;;8.68;7.40;;;17.00;63.40;;;;;;5072730;28;20027;-71
2023/06/10 05:01:21;;;;;;;7.78;7.00;;;17.10;63.40;;;;;;5072609;28;20019;-72
2023/06/10 05:03:47;;;;;;;9.52;7.00;;;17.10;63.40;;;;;;5072880;28;20107;-71
2023/06/10 05:06:12;;;;;;;7.90;7.20;;;17.20;63.30;;;;;;5072670;28;20020;-71
2023/06/10 05:08:38;;;;;;;8.45;7.53;;;17.30;63.20;;;;;;5072709;28;20029;-71
2023/06/10 05:11:03;;;;;;;7.70;6.90;;;17.40;63.00;;;;;;5072662;28;20024;-71
2023/06/10 05:13:29;;;;;;;8.57;7.65;;;17.50;63.00;;;;;;5072520;28;20017;-71
2023/06/10 05:15:55;;;;;;;7.90;7.10;;;17.60;62.70;;;;;;5073035;28;20384;-71
2023/06/10 05:18:21;;;;;;;8.13;7.30;;;17.70;62.40;;;;;;5076374;28;20029;-71
2023/06/10 05:20:46;;;;;;;7.93;7.20;;;17.80;61.80;;;;;;5076512;28;20024;-71
2023/06/10 05:23:12;;;;;;;9.25;8.32;;;17.90;61.30;;;;;;5076219;28;20031;-71
2023/06/10 05:25:37;;;;;;;10.30;8.35;;;17.90;61.00;;;;;;5076343;28;20481;-72
2023/06/10 05:28:03;;;;;;;9.52;8.25;;;17.80;61.40;;;;;;5076174;28;20029;-71
2023/06/10 05:30:29;;;;;;;10.93;8.98;;;17.80;61.40;;;;;;5076144;28;20078;-71
2023/06/10 05:32:56;;;;;;;9.50;8.50;;;17.70;62.00;;;;;;5076177;28;20024;-70
2023/06/10 05:35:21;;;;;;;14.20;8.85;;;17.70;61.70;;;;;;5074799;28;20029;-71
2023/06/10 05:37:47;;;;;;;15.15;9.82;;;17.60;62.00;;;;;;5075960;28;20170;-71
2023/06/10 05:40:12;;;;;;;9.05;8.23;;;17.60;62.50;;;;;;5075839;28;20028;-71
2023/06/10 05:42:38;;;;;;;11.02;7.20;;;17.70;62.20;;;;;;5075902;28;20048;-70
2023/06/10 05:45:06;;;;;;;7.93;7.07;;;17.90;61.30;;;;;;5075747;28;20443;-71
2023/06/10 05:47:32;;;;;;;9.27;7.18;;;18.10;60.90;;;;;;5075841;28;20017;-70
2023/06/10 05:49:57;;;;;;;12.35;8.23;;;18.30;60.10;;;;;;5074483;28;20035;-71
2023/06/10 05:52:23;;;;;;;9.50;7.00;;;18.40;59.40;;;;;;5074623;28;20021;-71
2023/06/10 05:54:50;;;;;;;9.88;7.38;;;18.60;58.90;;;;;;5076086;28;20024;-71
2023/06/10 05:57:15;;;;;;;7.30;6.60;;;18.70;57.80;;;;;;5078111;28;20029;-71
2023/06/10 05:59:41;;;;;;;9.95;8.52;;;18.80;57.60;;;;;;5075688;28;20350;-71
2023/06/10 06:02:06;;;;;;;8.10;7.30;;;18.80;56.20;;;;;;5075825;28;20102;-71
2023/06/10 06:04:32;;;;;;;8.82;7.97;;;18.90;56.70;;;;;;5074110;28;20072;-72
2023/06/10 06:06:58;;;;;;;8.27;7.47;;;19.00;56.20;;;;;;5075464;28;20028;-71
2023/06/10 06:09:23;;;;;;;8.27;7.47;;;19.10;55.90;;;;;;5075293;28;20028;-71
2023/06/10 06:11:49;;;;;;;9.77;8.15;;;19.20;55.60;;;;;;5075443;28;20031;-71
2023/06/10 06:14:14;;;;;;;8.77;7.93;;;19.30;55.00;;;;;;5073989;28;20032;-71
2023/06/10 06:16:40;;;;;;;12.80;8.20;;;19.30;55.20;;;;;;5074026;28;20112;-71
2023/06/10 06:19:05;;;;;;;8.30;7.50;;;19.20;55.20;;;;;;5075219;28;20532;-71
2023/06/10 06:21:31;;;;;;;11.77;8.25;;;19.20;55.50;;;;;;5075196;28;20021;-71
2023/06/10 06:23:57;;;;;;;12.82;8.95;;;19.20;55.90;;;;;;5075058;28;20481;-71
2023/06/10 06:26:23;;;;;;;9.80;8.10;;;19.30;55.90;;;;;;5075017;28;20539;-71
2023/06/10 06:28:48;;;;;;;8.02;7.22;;;19.30;56.10;;;;;;5074694;28;20024;-71
2023/06/10 06:31:14;;;;;;;8.32;7.38;;;19.40;55.70;;;;;;5075254;28;20017;-71
2023/06/10 06:33:40;;;;;;;11.80;8.40;;;19.60;55.70;;;;;;5074968;28;20380;-71
2023/06/10 06:36:05;;;;;;;9.85;7.35;;;19.70;55.70;;;;;;5074783;28;20393;-71
2023/06/10 06:38:31;;;;;;;8.38;7.57;;;19.80;55.60;;;;;;5074654;28;20496;-71
2023/06/10 06:41:02;;;;;;;9.00;7.90;;;19.90;55.30;;;;;;5074768;28;20032;-71
2023/06/10 06:43:28;;;;;;;8.70;7.80;;;20.00;55.20;;;;;;5074378;28;20029;-71
2023/06/10 06:45:53;;;;;;;10.73;7.53;;;20.10;55.10;;;;;;5074687;28;20135;-71
2023/06/10 06:48:19;;;;;;;9.20;8.30;;;20.00;55.00;;;;;;5074583;28;20104;-71
2023/06/10 06:50:44;;;;;;;9.00;7.45;;;20.20;55.00;;;;;;5074587;28;20107;-72
2023/06/10 06:53:10;;;;;;;7.75;6.95;;;20.30;55.00;;;;;;5074462;28;20027;-72
2023/06/10 06:55:35;;;;;;;7.55;6.85;;;20.40;54.50;;;;;;5073176;28;20025;-71
2023/06/10 06:58:03;;;;;;;9.05;7.10;;;20.50;54.30;;;;;;5074319;28;20020;-72
2023/06/10 07:00:29;;;;;;;8.95;7.93;;;20.60;54.60;;;;;;5074441;28;20023;-72
2023/06/10 07:02:58;;;;;;;7.88;7.18;;;20.60;54.60;;;;;;5074384;28;20021;-72
2023/06/10 07:05:27;;;;;;;7.88;7.13;;;20.60;55.10;;;;;;5073112;28;20024;-71
2023/06/10 07:07:55;;;;;;;9.63;7.38;;;20.70;55.00;;;;;;5074037;28;20021;-74
2023/06/10 07:10:24;;;;;;;9.20;7.60;;;20.70;55.30;;;;;;5073997;28;20031;-72
2023/06/10 07:12:50;;;;;;;7.35;6.35;;;20.70;55.70;;;;;;5073972;28;20053;-72
2023/06/10 07:15:16;;;;;;;7.90;7.10;;;20.80;55.30;;;;;;5073850;28;20052;-72
2023/06/10 07:17:41;;;;;;;8.10;7.30;;;21.00;55.00;;;;;;5074086;28;20032;-73
2023/06/10 07:20:07;;;;;;;8.52;7.72;;;21.10;55.30;;;;;;5073851;28;20032;-71
2023/06/10 07:22:33;;;;;;;12.68;8.00;;;21.10;55.60;;;;;;5073704;28;20028;-71
2023/06/10 07:24:58;;;;;;;8.85;7.95;;;21.10;55.70;;;;;;5073490;28;20036;-71
2023/06/10 07:27:24;;;;;;;10.63;7.53;;;21.00;56.00;;;;;;5073672;28;20025;-70
2023/06/10 07:29:50;;;;;;;8.60;7.70;;;21.00;56.10;;;;;;5073687;28;20126;-71
2023/06/10 07:32:16;;;;;;;9.15;7.95;;;21.20;55.80;;;;;;5073750;28;20477;-72
2023/06/10 07:34:42;;;;;;;9.07;8.18;;;21.20;55.60;;;;;;5073652;28;20039;-71
2023/06/10 07:37:08;;;;;;;9.50;8.50;;;21.20;55.70;;;;;;5073467;28;20032;-75
2023/06/10 07:39:34;;;;;;;11.20;7.88;;;21.10;56.30;;;;;;5072689;28;20051;-70
2023/06/10 07:42:00;;;;;;;9.18;8.27;;;21.10;56.60;;;;;;5073477;28;20020;-71
2023/06/10 07:44:25;;;;;;;8.40;7.00;;;21.20;56.50;;;;;;5073366;28;20127;-71
2023/06/10 07:46:51;;;;;;;9.80;8.30;;;21.20;56.40;;;;;;5073109;28;20021;-73
2023/06/10 07:49:16;;;;;;;8.75;7.72;;;21.30;56.20;;;;;;5072945;28;20429;-71
2023/06/10 07:51:42;;;;;;;8.18;7.38;;;21.30;56.40;;;;;;5073035;28;20549;-71
2023/06/10 07:54:07;;;;;;;7.80;7.07;;;21.40;55.50;;;;;;5073290;28;20541;-70
2023/06/10 07:56:33;;;;;;;9.65;7.63;;;21.40;55.50;;;;;;5073204;28;20039;-70
2023/06/10 07:58:58;;;;;;;8.00;7.20;;;21.60;55.40;;;;;;5073363;28;20385;-70
2023/06/10 08:01:24;;;;;;;8.40;7.60;;;21.70;55.00;;;;;;5073083;28;20074;-70
2023/06/10 08:03:50;;;;;;;9.00;7.80;;;21.60;55.10;;;;;;5073101;28;20086;-70
2023/06/10 08:06:17;;;;;;;9.65;6.75;;;21.40;55.80;;;;;;5072981;28;20028;-71
2023/06/10 08:08:43;;;;;;;7.78;6.78;;;21.50;55.60;;;;;;5072824;28;20062;-72
2023/06/10 08:11:12;;;;;;;7.93;7.18;;;21.60;55.60;;;;;;5072972;28;20063;-73
2023/06/10 08:13:38;;;;;;;10.15;8.25;;;21.80;56.10;;;;;;5072770;28;20032;-71
2023/06/10 08:16:04;;;;;;;10.32;7.70;;;22.00;55.70;;;;;;5072730;28;20020;-70
2023/06/10 08:18:29;;;;;;;9.02;7.68;;;22.10;55.30;;;;;;5072850;28;20377;-71
2023/06/10 08:20:55;;;;;;;8.95;8.05;;;22.10;54.80;;;;;;5072795;28;20325;-72
2023/06/10 08:23:20;;;;;;;8.40;7.40;;;22.00;54.30;;;;;;5072624;28;20073;-76
2023/06/10 08:25:46;;;;;;;8.20;7.18;;;22.20;54.60;;;;;;5072746;28;20047;-71
2023/06/10 08:28:12;;;;;;;7.88;6.93;;;22.30;54.30;;;;;;5072483;28;20063;-71
2023/06/10 08:30:37;;;;;;;7.15;6.45;;;22.30;53.80;;;;;;5072696;28;20540;-73
2023/06/10 08:33:03;;;;;;;10.18;7.22;;;22.20;54.00;;;;;;5072729;28;20411;-72
2023/06/10 08:35:28;;;;;;;7.40;6.70;;;22.30;53.80;;;;;;5072408;28;20040;-72
2023/06/10 08:37:54;;;;;;;10.27;7.53;;;22.30;53.80;;;;;;5072189;28;20021;-72
2023/06/10 08:40:20;;;;;;;7.03;6.43;;;22.30;53.80;;;;;;5071035;28;20121;-72
2023/06/10 08:42:52;;;;;;;8.85;7.43;;;22.40;54.00;;;;;;5072470;28;20036;-72
2023/06/10 08:45:18;;;;;;;11.18;8.55;;;22.40;53.80;;;;;;5072387;28;20083;-72
2023/06/10 08:47:53;;;;;;;8.25;7.45;;;22.60;53.10;;;;;;5072110;28;20067;-72
2023/06/10 08:50:19;;;;;;;8.52;7.18;;;22.60;52.80;;;;;;5072266;28;20031;-72
2023/06/10 08:52:48;;;;;;;7.25;6.55;;;22.50;51.80;;;;;;5076081;28;20115;-75
2023/06/10 08:55:19;;;;;;;8.65;6.90;;;22.50;51.70;;;;;;5076540;28;20436;-72
2023/06/10 08:57:47;;;;;;;8.13;6.72;;;22.60;51.70;;;;;;5076544;28;20147;-72
2023/06/10 09:00:14;;;;;;;9.13;6.90;;;22.80;51.50;;;;;;5076354;28;20056;-72
2023/06/10 09:02:39;;;;;;;8.00;6.82;;;23.00;51.50;;;;;;5076580;28;20017;-73
2023/06/10 09:05:06;;;;;;;10.63;7.18;;;23.20;51.00;;;;;;5076364;28;20082;-72
2023/06/10 09:07:34;;;;;;;8.27;7.07;;;23.50;50.50;;;;;;5075326;28;20469;-72
2023/06/10 09:10:03;;;;;;;8.52;7.15;;;23.60;49.80;;;;;;5075010;28;20358;-72
2023/06/10 09:12:29;;;;;;;7.25;6.55;;;23.70;49.10;;;;;;5076303;28;20025;-71
2023/06/10 09:14:55;;;;;;;7.60;6.90;;;23.60;49.00;;;;;;5076171;28;20021;-72
2023/06/10 09:17:20;;;;;;;8.68;6.55;;;23.70;49.30;;;;;;5076069;28;20111;-72
2023/06/10 09:19:47;;;;;;;7.07;6.30;;;23.70;50.10;;;;;;5075928;28;20193;-72
2023/06/10 09:22:12;;;;;;;7.80;6.68;;;23.50;49.40;;;;;;5075970;28;20040;-73
2023/06/10 09:24:39;;;;;;;8.57;6.93;;;23.40;49.30;;;;;;5075799;28;20032;-72
2023/06/10 09:27:06;;;;;;;7.55;6.85;;;23.40;50.10;;;;;;5076028;28;20469;-72
2023/06/10 09:29:52;;;;;;;7.28;6.30;;;23.40;49.80;;;;;;5075915;28;20066;-72
2023/06/10 09:32:18;;;;;;;;;;;23.40;50.00;;;;;;5076097;28;20029;-72
2023/06/10 09:34:44;;;;;;;7.47;6.60;;;23.50;50.50;;;;;;5076071;28;19904;-71
2023/06/10 09:37:12;;;;;;;7.40;6.70;;;23.60;50.00;;;;;;5075707;28;20142;-72
2023/06/10 09:39:38;;;;;;;7.25;6.55;;;23.70;48.40;;;;;;5075359;28;20127;-70
2023/06/10 09:42:24;;;;;;;6.95;6.25;;;23.70;48.60;;;;;;5075424;28;20108;-70
2023/06/10 09:44:52;;;;;;;7.32;6.63;;;23.80;48.30;;;;;;5075241;28;20045;-70
2023/06/10 09:47:22;;;;;;;8.25;6.78;;;23.90;48.20;;;;;;5075749;28;20468;-71
2023/06/10 09:49:48;;;;;;;6.53;5.82;;;24.00;49.40;;;;;;5075460;28;20028;-70
2023/06/10 09:52:20;;;;;;;7.50;5.43;;;24.30;48.10;;;;;;5075062;28;20021;-71
2023/06/10 09:54:46;;;;;;;6.32;5.72;;;24.60;46.90;;;;;;5074921;28;20112;-70
2023/06/10 09:57:12;;;;;;;6.88;5.78;;;24.90;45.00;;;;;;5075309;28;20090;-71
2023/06/10 09:59:38;;;;;;;5.95;4.90;;;25.20;44.60;;;;;;5075520;28;20029;-71
2023/06/10 10:02:04;;;;;;;8.95;5.97;;;25.40;42.60;;;;;;5074816;28;20078;-71
2023/06/10 10:04:31;;;;;;;6.65;5.13;;;25.50;42.20;;;;;;5075287;28;20463;-71
2023/06/10 10:06:56;;;;;;;5.13;4.63;;;25.50;41.80;;;;;;5073880;28;20119;-71
2023/06/10 10:09:22;;;;;;;5.53;5.03;;;25.50;41.60;;;;;;5073804;28;20123;-72
2023/06/10 10:11:48;;;;;;;5.90;5.30;;;25.40;42.20;;;;;;5075155;28;20029;-71
2023/06/10 10:14:16;;;;;;;6.38;5.78;;;25.20;42.90;;;;;;5075433;28;20029;-71
2023/06/10 10:16:43;;;;;;;7.13;5.28;;;25.00;43.40;;;;;;5075050;28;20111;-72
2023/06/10 10:19:15;;;;;;;4.90;4.50;;;25.10;43.90;;;;;;5073497;28;20380;-71
2023/06/10 10:21:52;;;;;;;7.93;5.32;;;25.50;43.70;;;;;;5074822;28;20077;-71
2023/06/10 10:24:23;;;;;;;5.38;4.18;;;25.80;41.00;;;;;;5074800;28;20496;-71
2023/06/10 10:26:49;;;;;;;6.63;4.72;;;25.70;40.70;;;;;;5074631;28;20028;-70
2023/06/10 10:29:36;;;;;;;4.68;4.28;;;25.80;40.80;;;;;;5074945;28;20079;-74
2023/06/10 10:32:03;;;;;;;6.85;4.57;;;25.80;40.70;;;;;;5073533;28;20028;-71
2023/06/10 10:34:53;;;;;;;4.60;4.20;;;25.70;40.50;;;;;;5074703;28;20024;-71
2023/06/10 10:37:20;;;;;;;4.68;4.28;;;25.50;40.90;;;;;;5074385;28;20507;-71
2023/06/10 10:39:46;;;;;;;5.07;4.30;;;25.70;41.40;;;;;;5074330;28;20051;-71
2023/06/10 10:42:12;;;;;;;4.55;4.15;;;25.80;40.90;;;;;;5074460;28;20024;-71
2023/06/10 10:44:38;;;;;;;5.53;4.82;;;25.70;40.30;;;;;;5074393;28;20389;-71
2023/06/10 10:47:07;;;;;;;5.30;4.07;;;25.60;40.70;;;;;;5074489;28;20028;-71
2023/06/10 10:49:35;;;;;;;5.78;4.45;;;25.80;41.00;;;;;;5074344;28;20090;-71
2023/06/10 10:52:01;;;;;;;5.00;4.50;;;25.80;40.40;;;;;;5074586;28;20016;-71
2023/06/10 10:54:32;;;;;;;4.93;4.43;;;25.70;41.00;;;;;;5074281;28;20054;-72
2023/06/10 10:57:13;;;;;;;6.15;4.05;;;25.70;40.20;;;;;;5074193;28;20032;-71
2023/06/10 10:59:46;;;;;;;6.20;3.95;;;25.50;40.70;;;;;;5074114;28;20401;-70
2023/06/10 11:02:35;;;;;;;6.05;4.10;;;25.30;40.60;;;;;;5074143;28;20373;-71
2023/06/10 11:05:01;;;;;;;4.07;3.67;;;25.30;40.30;;;;;;5074298;28;20091;-71
2023/06/10 11:07:29;;;;;;;6.13;4.40;;;25.40;40.00;;;;;;5074178;28;20389;-71
2023/06/10 11:10:02;;;;;;;4.40;4.00;;;25.60;39.90;;;;;;5073972;28;20021;-71
2023/06/10 11:12:45;;;;;;;4.13;3.72;;;25.90;39.80;;;;;;5073947;28;20465;-71
2023/06/10 11:15:18;;;;;;;5.43;4.47;;;26.30;39.50;;;;;;5072971;28;20545;-72
2023/06/10 11:18:06;;;;;;;6.13;4.20;;;26.30;39.30;;;;;;5073833;28;20102;-72
2023/06/10 11:20:43;;;;;;;4.10;3.08;;;26.40;38.80;;;;;;5073772;28;20029;-72
2023/06/10 11:23:09;;;;;;;3.63;3.22;;;26.40;38.00;;;;;;5073668;28;20104;-73
2023/06/10 11:25:40;;;;;;;5.38;3.53;;;26.50;37.00;;;;;;5073632;28;20474;-72
2023/06/10 11:28:19;;;;;;;3.70;3.40;;;26.50;37.50;;;;;;5073818;28;20024;-73
2023/06/10 11:30:45;;;;;;;4.30;3.90;;;26.60;37.40;;;;;;5073692;28;20025;-72
2023/06/10 11:33:16;;;;;;;4.07;3.55;;;26.50;37.30;;;;;;5073397;28;20032;-72
2023/06/10 11:35:43;;;;;;;4.78;3.30;;;26.40;37.20;;;;;;5073338;28;20028;-72
2023/06/10 11:38:08;;;;;;;3.25;2.95;;;26.50;37.30;;;;;;5073351;28;20047;-73
2023/06/10 11:40:34;;;;;;;2.80;2.60;;;26.80;37.20;;;;;;5073638;28;20028;-72
2023/06/10 11:43:01;;;;;;;3.70;2.97;;;27.10;35.60;;;;;;5073608;28;20027;-72
2023/06/10 11:45:26;;;;;;;3.53;2.55;;;27.20;34.90;;;;;;5073371;28;20072;-71
2023/06/10 11:47:59;;;;;;;3.15;2.85;;;27.10;34.50;;;;;;5073479;28;20106;-73
2023/06/10 11:50:32;;;;;;;3.05;2.75;;;27.10;34.30;;;;;;5073300;28;20476;-72
2023/06/10 11:52:58;;;;;;;2.95;2.70;;;26.90;33.80;;;;;;5073451;28;20026;-72
2023/06/10 11:55:43;;;;;;;3.30;2.95;;;26.80;34.40;;;;;;5073322;28;20108;-82
2023/06/10 11:58:20;;;;;;;3.65;2.88;;;26.80;34.90;;;;;;5073211;28;20376;-72
2023/06/10 12:00:58;;;;;;;3.15;2.75;;;26.80;34.20;;;;;;5073061;28;20465;-72
2023/06/10 12:03:25;;;;;;;3.25;2.97;;;26.90;34.80;;;;;;5073023;28;20028;-72
2023/06/10 12:06:05;;;;;;;4.93;2.80;;;27.00;34.20;;;;;;5073204;28;20130;-71
2023/06/10 12:08:30;;;;;;;3.58;3.28;;;27.40;34.70;;;;;;5073686;28;20067;-74
2023/06/10 12:10:57;;;;;;;4.32;3.10;;;27.60;33.80;;;;;;5073985;28;20032;-75
2023/06/10 12:13:26;;;;;;;2.55;2.33;;;27.60;32.60;;;;;;5073816;28;20036;-74
2023/06/10 12:15:51;;;;;;;2.60;2.40;;;27.50;31.60;;;;;;5072991;28;20024;-74
2023/06/10 12:18:21;;;;;;;3.00;2.65;;;27.50;31.90;;;;;;5072908;28;20032;-73
2023/06/10 12:20:48;;;;;;;2.60;2.40;;;27.50;31.90;;;;;;5072771;28;20078;-80
2023/06/10 12:23:14;;;;;;;3.22;2.92;;;27.50;32.60;;;;;;5071638;28;20062;-80
2023/06/10 12:25:51;;;;;;;5.82;2.58;;;27.70;32.80;;;;;;5075573;28;20025;-81
2023/06/10 12:28:19;;;;;;;2.75;2.55;;;28.00;32.70;;;;;;5073831;28;20051;-78
2023/06/10 12:30:44;;;;;;;3.55;2.13;;;27.90;30.50;;;;;;5073173;28;20074;-71
2023/06/10 12:33:20;;;;;;;2.70;2.50;;;27.80;30.70;;;;;;5073114;28;20020;-80
2023/06/10 12:35:53;;;;;;;2.50;2.30;;;27.70;31.40;;;;;;5073186;28;20017;-83
2023/06/10 12:38:28;;;;;;;3.00;2.63;;;27.50;31.30;;;;;;5072536;28;20045;-77
2023/06/10 12:40:54;;;;;;;3.17;2.88;;;27.40;31.80;;;;;;5072547;28;20071;-73
2023/06/10 12:43:23;;;;;;;5.68;3.72;;;27.60;31.10;;;;;;5072667;28;20056;-72
2023/06/10 12:45:49;;;;;;;5.47;4.35;;;28.00;32.00;;;;;;5072645;28;20033;-73
2023/06/10 12:48:18;;;;;;;2.80;2.60;;;28.50;30.70;;;;;;5072692;28;20035;-72